sensor_id;sensor_type;location;lat;lon;timestamp;pressure;altitude;pressure_sealevel;temperature;humidity
41312;BME280;27061;41.648;24.568;2022-09-12T00:01:20;85736.09;;;16.79;68.54
41312;BME280;27061;41.648;24.568;2022-09-12T00:03:56;85719.38;;;16.77;68.31
41312;BME280;27061;41.648;24.568;2022-09-12T00:06:32;85719.81;;;16.65;68.71
41312;BME280;27061;41.648;24.568;2022-09-12T00:09:05;85686.31;;;16.44;68.96
41312;BME280;27061;41.648;24.568;2022-09-12T00:11:37;85716.47;;;16.61;68.83
41312;BME280;27061;41.648;24.568;2022-09-12T00:14:09;85710.41;;;16.54;68.95
41312;BME280;27061;41.648;24.568;2022-09-12T00:16:39;85703.81;;;16.43;68.97
41312;BME280;27061;41.648;24.568;2022-09-12T00:19:07;85728.00;;;16.51;69.74
41312;BME280;27061;41.648;24.568;2022-09-12T00:21:37;85696.13;;;16.43;70.17
41312;BME280;27061;41.648;24.568;2022-09-12T00:24:05;85692.81;;;16.39;67.91
41312;BME280;27061;41.648;24.568;2022-09-12T00:26:33;85698.16;;;16.45;68.65
41312;BME280;27061;41.648;24.568;2022-09-12T00:29:01;85670.44;;;16.20;68.62
41312;BME280;27061;41.648;24.568;2022-09-12T00:31:29;85690.63;;;16.41;68.33
41312;BME280;27061;41.648;24.568;2022-09-12T00:33:58;85719.56;;;16.53;68.39
41312;BME280;27061;41.648;24.568;2022-09-12T00:36:28;85705.66;;;16.51;68.22
41312;BME280;27061;41.648;24.568;2022-09-12T00:38:57;85699.47;;;16.48;67.58
41312;BME280;27061;41.648;24.568;2022-09-12T00:41:29;85710.28;;;16.58;67.76
41312;BME280;27061;41.648;24.568;2022-09-12T00:44:43;85693.00;;;16.33;67.24
41312;BME280;27061;41.648;24.568;2022-09-12T00:47:26;85665.13;;;15.91;66.22
41312;BME280;27061;41.648;24.568;2022-09-12T00:50:00;85713.75;;;16.19;67.04
41312;BME280;27061;41.648;24.568;2022-09-12T00:52:48;85695.06;;;16.14;66.69
41312;BME280;27061;41.648;24.568;2022-09-12T00:55:29;85705.28;;;16.21;66.08
41312;BME280;27061;41.648;24.568;2022-09-12T00:58:12;85687.06;;;16.03;66.71
41312;BME280;27061;41.648;24.568;2022-09-12T01:00:41;85702.16;;;16.10;65.33
41312;BME280;27061;41.648;24.568;2022-09-12T01:03:11;85718.66;;;16.19;66.53
41312;BME280;27061;41.648;24.568;2022-09-12T01:05:45;85717.81;;;16.22;67.36
41312;BME280;27061;41.648;24.568;2022-09-12T01:08:15;85722.72;;;16.22;67.73
41312;BME280;27061;41.648;24.568;2022-09-12T01:10:44;85703.53;;;16.11;64.82
41312;BME280;27061;41.648;24.568;2022-09-12T01:13:13;85676.09;;;15.97;65.78
41312;BME280;27061;41.648;24.568;2022-09-12T01:15:41;85717.97;;;16.18;66.24
41312;BME280;27061;41.648;24.568;2022-09-12T01:26:46;85705.84;;;16.26;65.74
41312;BME280;27061;41.648;24.568;2022-09-12T01:29:58;85705.03;;;16.29;65.69
41312;BME280;27061;41.648;24.568;2022-09-12T01:46:23;85684.19;;;16.05;65.67
41312;BME280;27061;41.648;24.568;2022-09-12T01:49:02;85648.56;;;15.66;64.75
41312;BME280;27061;41.648;24.568;2022-09-12T01:51:38;85672.06;;;15.92;64.64
41312;BME280;27061;41.648;24.568;2022-09-12T01:54:17;85678.75;;;16.01;64.17
41312;BME280;27061;41.648;24.568;2022-09-12T01:56:50;85694.00;;;16.04;65.26
41312;BME280;27061;41.648;24.568;2022-09-12T01:59:25;85690.66;;;16.00;66.54
41312;BME280;27061;41.648;24.568;2022-09-12T02:04:49;85643.72;;;15.65;65.52
41312;BME280;27061;41.648;24.568;2022-09-12T02:07:35;85667.06;;;15.55;66.92
41312;BME280;27061;41.648;24.568;2022-09-12T02:12:43;85680.72;;;15.63;67.48
41312;BME280;27061;41.648;24.568;2022-09-12T02:15:13;85662.19;;;15.54;67.78
41312;BME280;27061;41.648;24.568;2022-09-12T02:17:43;85659.56;;;15.70;67.42
41312;BME280;27061;41.648;24.568;2022-09-12T02:23:19;85690.06;;;15.77;65.11
41312;BME280;27061;41.648;24.568;2022-09-12T02:25:52;85614.53;;;15.18;64.25
41312;BME280;27061;41.648;24.568;2022-09-12T02:28:25;85684.88;;;15.64;66.39
41312;BME280;27061;41.648;24.568;2022-09-12T02:31:35;85693.31;;;15.39;67.21
41312;BME280;27061;41.648;24.568;2022-09-12T02:39:28;85679.66;;;15.31;66.48
41312;BME280;27061;41.648;24.568;2022-09-12T02:41:58;85686.72;;;15.28;67.27
41312;BME280;27061;41.648;24.568;2022-09-12T02:44:28;85675.09;;;14.99;66.32
41312;BME280;27061;41.648;24.568;2022-09-12T02:47:08;85686.13;;;15.03;64.99
41312;BME280;27061;41.648;24.568;2022-09-12T02:49:37;85688.78;;;15.07;65.67
41312;BME280;27061;41.648;24.568;2022-09-12T02:52:05;85673.19;;;14.93;66.00
41312;BME280;27061;41.648;24.568;2022-09-12T02:54:33;85692.94;;;15.08;65.32
41312;BME280;27061;41.648;24.568;2022-09-12T02:57:00;85691.75;;;15.01;64.20
41312;BME280;27061;41.648;24.568;2022-09-12T02:59:28;85656.25;;;14.77;64.17
41312;BME280;27061;41.648;24.568;2022-09-12T03:08:07;85693.78;;;14.80;65.87
41312;BME280;27061;41.648;24.568;2022-09-12T03:16:32;85697.94;;;14.81;65.76
41312;BME280;27061;41.648;24.568;2022-09-12T03:19:22;85696.44;;;14.84;63.36
41312;BME280;27061;41.648;24.568;2022-09-12T03:22:01;85697.75;;;14.87;64.06
41312;BME280;27061;41.648;24.568;2022-09-12T03:24:34;85700.53;;;14.87;63.66
41312;BME280;27061;41.648;24.568;2022-09-12T03:29:50;85693.59;;;14.86;63.93
41312;BME280;27061;41.648;24.568;2022-09-12T03:32:19;85703.34;;;14.87;64.81
41312;BME280;27061;41.648;24.568;2022-09-12T03:34:46;85692.31;;;14.83;63.35
41312;BME280;27061;41.648;24.568;2022-09-12T03:37:14;85699.84;;;14.86;63.19
41312;BME280;27061;41.648;24.568;2022-09-12T03:39:41;85713.78;;;14.86;63.58
41312;BME280;27061;41.648;24.568;2022-09-12T03:42:09;85710.28;;;14.88;64.18
41312;BME280;27061;41.648;24.568;2022-09-12T03:44:36;85711.16;;;14.82;63.13
41312;BME280;27061;41.648;24.568;2022-09-12T03:47:04;85698.69;;;14.79;62.48
41312;BME280;27061;41.648;24.568;2022-09-12T03:49:36;85725.81;;;14.81;62.60
41312;BME280;27061;41.648;24.568;2022-09-12T03:52:03;85705.88;;;14.72;63.17
41312;BME280;27061;41.648;24.568;2022-09-12T03:54:31;85696.88;;;14.70;62.71
41312;BME280;27061;41.648;24.568;2022-09-12T03:56:58;85687.69;;;14.50;62.04
41312;BME280;27061;41.648;24.568;2022-09-12T03:59:26;85703.25;;;14.66;61.31
41312;BME280;27061;41.648;24.568;2022-09-12T04:01:53;85706.81;;;14.62;61.95
41312;BME280;27061;41.648;24.568;2022-09-12T04:04:20;85716.44;;;14.68;61.79
41312;BME280;27061;41.648;24.568;2022-09-12T04:06:48;85702.13;;;14.57;62.12
41312;BME280;27061;41.648;24.568;2022-09-12T04:09:16;85690.78;;;14.40;62.26
41312;BME280;27061;41.648;24.568;2022-09-12T04:11:43;85717.47;;;14.56;62.38
41312;BME280;27061;41.648;24.568;2022-09-12T04:14:11;85705.88;;;14.47;62.67
41312;BME280;27061;41.648;24.568;2022-09-12T04:16:38;85667.69;;;14.19;62.95
41312;BME280;27061;41.648;24.568;2022-09-12T04:19:06;85726.69;;;14.50;62.23
41312;BME280;27061;41.648;24.568;2022-09-12T04:21:35;85727.38;;;14.51;61.82
41312;BME280;27061;41.648;24.568;2022-09-12T04:24:03;85702.53;;;14.18;63.37
41312;BME280;27061;41.648;24.568;2022-09-12T04:26:30;85731.31;;;14.33;63.72
41312;BME280;27061;41.648;24.568;2022-09-12T04:28:58;85733.25;;;14.39;63.62
41312;BME280;27061;41.648;24.568;2022-09-12T04:31:26;85732.59;;;14.38;63.04
41312;BME280;27061;41.648;24.568;2022-09-12T04:33:56;85745.19;;;14.35;63.70
41312;BME280;27061;41.648;24.568;2022-09-12T04:36:26;85741.59;;;14.41;63.41
41312;BME280;27061;41.648;24.568;2022-09-12T04:38:54;85712.16;;;13.96;64.51
41312;BME280;27061;41.648;24.568;2022-09-12T04:41:24;85735.97;;;14.16;64.34
41312;BME280;27061;41.648;24.568;2022-09-12T04:43:54;85720.38;;;14.00;64.49
41312;BME280;27061;41.648;24.568;2022-09-12T04:46:25;85719.88;;;13.93;65.04
41312;BME280;27061;41.648;24.568;2022-09-12T04:48:52;85719.09;;;13.97;63.79
41312;BME280;27061;41.648;24.568;2022-09-12T04:51:34;85741.59;;;14.14;63.83
41312;BME280;27061;41.648;24.568;2022-09-12T04:54:07;85747.13;;;14.16;64.28
41312;BME280;27061;41.648;24.568;2022-09-12T04:56:40;85738.03;;;14.17;63.83
41312;BME280;27061;41.648;24.568;2022-09-12T04:59:09;85746.47;;;14.13;64.53
41312;BME280;27061;41.648;24.568;2022-09-12T05:01:37;85727.31;;;14.01;65.59
41312;BME280;27061;41.648;24.568;2022-09-12T05:04:04;85737.72;;;14.03;64.55
41312;BME280;27061;41.648;24.568;2022-09-12T05:06:34;85748.69;;;14.09;63.91
41312;BME280;27061;41.648;24.568;2022-09-12T05:09:05;85727.38;;;13.72;65.87
41312;BME280;27061;41.648;24.568;2022-09-12T05:11:35;85754.09;;;13.88;64.39
41312;BME280;27061;41.648;24.568;2022-09-12T05:14:24;85751.91;;;13.92;65.51
41312;BME280;27061;41.648;24.568;2022-09-12T05:16:51;85756.50;;;14.02;64.66
41312;BME280;27061;41.648;24.568;2022-09-12T05:19:19;85730.94;;;13.96;65.06
41312;BME280;27061;41.648;24.568;2022-09-12T05:21:46;85750.16;;;14.06;65.73
41312;BME280;27061;41.648;24.568;2022-09-12T05:24:14;85746.50;;;13.86;65.54
41312;BME280;27061;41.648;24.568;2022-09-12T05:26:41;85750.84;;;13.79;66.02
41312;BME280;27061;41.648;24.568;2022-09-12T05:29:08;85751.47;;;13.82;65.25
41312;BME280;27061;41.648;24.568;2022-09-12T05:31:35;85753.31;;;13.65;64.46
41312;BME280;27061;41.648;24.568;2022-09-12T05:34:03;85723.69;;;13.53;65.12
41312;BME280;27061;41.648;24.568;2022-09-12T05:36:32;85732.72;;;13.53;67.14
41312;BME280;27061;41.648;24.568;2022-09-12T05:39:02;85747.75;;;13.65;65.65
41312;BME280;27061;41.648;24.568;2022-09-12T05:41:31;85745.56;;;13.67;66.24
41312;BME280;27061;41.648;24.568;2022-09-12T05:44:03;85733.25;;;13.60;67.14
41312;BME280;27061;41.648;24.568;2022-09-12T05:46:39;85755.28;;;13.68;67.26
41312;BME280;27061;41.648;24.568;2022-09-12T05:49:09;85734.56;;;13.63;65.06
41312;BME280;27061;41.648;24.568;2022-09-12T05:51:41;85750.31;;;13.73;65.19
41312;BME280;27061;41.648;24.568;2022-09-12T05:54:12;85728.00;;;13.48;67.25
41312;BME280;27061;41.648;24.568;2022-09-12T05:56:42;85730.50;;;13.58;67.28
41312;BME280;27061;41.648;24.568;2022-09-12T05:59:13;85725.38;;;13.42;65.66
41312;BME280;27061;41.648;24.568;2022-09-12T06:01:40;85746.84;;;13.72;65.99
41312;BME280;27061;41.648;24.568;2022-09-12T06:04:08;85698.34;;;13.38;67.23
41312;BME280;27061;41.648;24.568;2022-09-12T06:06:39;85742.72;;;13.71;67.81
41312;BME280;27061;41.648;24.568;2022-09-12T06:09:16;85743.97;;;13.76;65.91
41312;BME280;27061;41.648;24.568;2022-09-12T06:11:45;85718.09;;;13.55;67.21
41312;BME280;27061;41.648;24.568;2022-09-12T06:14:14;85744.16;;;13.68;65.48
41312;BME280;27061;41.648;24.568;2022-09-12T06:16:43;85758.72;;;13.71;68.56
41312;BME280;27061;41.648;24.568;2022-09-12T06:19:16;85729.22;;;13.55;68.64
41312;BME280;27061;41.648;24.568;2022-09-12T06:21:44;85731.44;;;13.48;68.83
41312;BME280;27061;41.648;24.568;2022-09-12T06:24:12;85724.78;;;13.37;65.86
41312;BME280;27061;41.648;24.568;2022-09-12T06:26:40;85748.47;;;13.63;65.62
41312;BME280;27061;41.648;24.568;2022-09-12T06:29:08;85731.03;;;13.38;67.95
41312;BME280;27061;41.648;24.568;2022-09-12T06:31:39;85763.22;;;13.57;67.04
41312;BME280;27061;41.648;24.568;2022-09-12T06:34:12;85738.44;;;13.18;66.97
41312;BME280;27061;41.648;24.568;2022-09-12T06:36:43;85738.25;;;13.27;67.89
41312;BME280;27061;41.648;24.568;2022-09-12T06:39:16;85728.66;;;13.22;66.58
41312;BME280;27061;41.648;24.568;2022-09-12T06:41:45;85754.63;;;13.39;68.04
41312;BME280;27061;41.648;24.568;2022-09-12T06:44:15;85766.34;;;13.43;68.48
41312;BME280;27061;41.648;24.568;2022-09-12T06:46:44;85756.69;;;13.40;68.80
41312;BME280;27061;41.648;24.568;2022-09-12T06:49:12;85744.25;;;13.37;67.79
41312;BME280;27061;41.648;24.568;2022-09-12T06:51:40;85752.09;;;13.29;66.03
41312;BME280;27061;41.648;24.568;2022-09-12T06:54:11;85775.31;;;13.46;67.04
41312;BME280;27061;41.648;24.568;2022-09-12T06:56:39;85744.75;;;13.15;69.35
41312;BME280;27061;41.648;24.568;2022-09-12T06:59:07;85787.75;;;13.49;69.20
41312;BME280;27061;41.648;24.568;2022-09-12T07:01:34;85773.16;;;13.48;68.96
41312;BME280;27061;41.648;24.568;2022-09-12T07:04:03;85760.78;;;13.43;68.45
41312;BME280;27061;41.648;24.568;2022-09-12T07:06:36;85727.91;;;13.23;67.05
41312;BME280;27061;41.648;24.568;2022-09-12T07:09:06;85757.59;;;13.60;68.40
41312;BME280;27061;41.648;24.568;2022-09-12T07:11:36;85773.41;;;13.67;65.41
41312;BME280;27061;41.648;24.568;2022-09-12T07:14:05;85765.56;;;13.47;65.33
41312;BME280;27061;41.648;24.568;2022-09-12T07:16:34;85761.66;;;13.36;68.29
41312;BME280;27061;41.648;24.568;2022-09-12T07:19:04;85758.06;;;13.41;66.54
41312;BME280;27061;41.648;24.568;2022-09-12T07:21:31;85780.69;;;13.54;66.94
41312;BME280;27061;41.648;24.568;2022-09-12T07:23:59;85782.69;;;13.57;68.63
41312;BME280;27061;41.648;24.568;2022-09-12T07:26:28;85783.28;;;13.62;69.25
41312;BME280;27061;41.648;24.568;2022-09-12T07:28:57;85748.78;;;13.51;70.79
41312;BME280;27061;41.648;24.568;2022-09-12T07:31:45;85783.31;;;13.60;68.58
41312;BME280;27061;41.648;24.568;2022-09-12T07:34:13;85736.28;;;13.50;67.51
41312;BME280;27061;41.648;24.568;2022-09-12T07:36:41;85759.50;;;13.67;68.17
41312;BME280;27061;41.648;24.568;2022-09-12T07:39:10;85749.47;;;13.51;69.80
41312;BME280;27061;41.648;24.568;2022-09-12T07:41:37;85780.66;;;13.83;69.71
41312;BME280;27061;41.648;24.568;2022-09-12T07:44:04;85733.47;;;13.52;68.38
41312;BME280;27061;41.648;24.568;2022-09-12T07:46:33;85788.72;;;13.95;69.45
41312;BME280;27061;41.648;24.568;2022-09-12T07:49:01;85737.03;;;13.75;67.37
41312;BME280;27061;41.648;24.568;2022-09-12T07:51:30;85780.84;;;14.04;66.34
41312;BME280;27061;41.648;24.568;2022-09-12T07:53:58;85778.72;;;14.31;69.19
41312;BME280;27061;41.648;24.568;2022-09-12T07:56:26;85774.41;;;14.36;70.81
41312;BME280;27061;41.648;24.568;2022-09-12T07:58:58;85747.53;;;14.26;64.31
41312;BME280;27061;41.648;24.568;2022-09-12T08:01:26;85775.91;;;14.58;71.22
41312;BME280;27061;41.648;24.568;2022-09-12T08:03:55;85771.44;;;14.69;68.64
41312;BME280;27061;41.648;24.568;2022-09-12T08:06:24;85767.56;;;14.83;66.93
41312;BME280;27061;41.648;24.568;2022-09-12T08:08:54;85784.22;;;14.85;66.40
41312;BME280;27061;41.648;24.568;2022-09-12T08:11:23;85781.25;;;14.91;64.97
41312;BME280;27061;41.648;24.568;2022-09-12T08:13:53;85790.25;;;14.93;61.52
41312;BME280;27061;41.648;24.568;2022-09-12T08:16:27;85786.59;;;14.99;62.52
41312;BME280;27061;41.648;24.568;2022-09-12T08:18:55;85785.34;;;14.94;65.06
41312;BME280;27061;41.648;24.568;2022-09-12T08:21:26;85783.63;;;15.05;65.73
41312;BME280;27061;41.648;24.568;2022-09-12T08:24:01;85796.47;;;15.19;61.65
41312;BME280;27061;41.648;24.568;2022-09-12T08:26:30;85783.25;;;15.17;66.61
41312;BME280;27061;41.648;24.568;2022-09-12T08:28:59;85791.41;;;15.25;61.76
41312;BME280;27061;41.648;24.568;2022-09-12T08:31:27;85780.53;;;15.38;65.84
41312;BME280;27061;41.648;24.568;2022-09-12T08:33:56;85798.00;;;15.36;63.11
41312;BME280;27061;41.648;24.568;2022-09-12T08:36:26;85797.09;;;15.44;63.62
41312;BME280;27061;41.648;24.568;2022-09-12T08:38:59;85756.44;;;15.28;64.34
41312;BME280;27061;41.648;24.568;2022-09-12T08:41:37;85790.34;;;15.60;64.32
41312;BME280;27061;41.648;24.568;2022-09-12T08:49:53;85787.66;;;15.79;62.55
41312;BME280;27061;41.648;24.568;2022-09-12T08:54:57;85767.00;;;15.92;59.10
41312;BME280;27061;41.648;24.568;2022-09-12T08:57:25;85768.53;;;16.10;61.63
41312;BME280;27061;41.648;24.568;2022-09-12T08:59:52;85741.75;;;15.96;61.91
41312;BME280;27061;41.648;24.568;2022-09-12T09:05:45;85780.94;;;16.55;62.90
41312;BME280;27061;41.648;24.568;2022-09-12T09:11:22;85775.44;;;16.73;57.27
41312;BME280;27061;41.648;24.568;2022-09-12T09:14:09;85776.22;;;16.91;59.28
41312;BME280;27061;41.648;24.568;2022-09-12T09:16:58;85761.88;;;17.01;61.80
41312;BME280;27061;41.648;24.568;2022-09-12T09:19:31;85745.47;;;16.91;58.98
41312;BME280;27061;41.648;24.568;2022-09-12T09:22:17;85780.56;;;17.25;56.18
41312;BME280;27061;41.648;24.568;2022-09-12T09:24:58;85729.13;;;16.97;56.98
41312;BME280;27061;41.648;24.568;2022-09-12T09:27:32;85734.34;;;16.89;55.52
41312;BME280;27061;41.648;24.568;2022-09-12T09:30:16;85771.88;;;17.33;56.14
41312;BME280;27061;41.648;24.568;2022-09-12T09:32:49;85777.47;;;17.33;56.60
41312;BME280;27061;41.648;24.568;2022-09-12T09:35:44;85734.97;;;17.10;56.44
41312;BME280;27061;41.648;24.568;2022-09-12T09:38:53;85784.66;;;17.47;54.77
41312;BME280;27061;41.648;24.568;2022-09-12T09:44:22;85771.47;;;17.43;56.72
41312;BME280;27061;41.648;24.568;2022-09-12T09:46:53;85773.81;;;17.55;55.64
41312;BME280;27061;41.648;24.568;2022-09-12T09:49:23;85773.88;;;17.53;53.38
41312;BME280;27061;41.648;24.568;2022-09-12T09:51:52;85713.34;;;17.08;54.32
41312;BME280;27061;41.648;24.568;2022-09-12T09:54:38;85730.28;;;17.23;53.75
41312;BME280;27061;41.648;24.568;2022-09-12T10:08:34;85748.94;;;17.10;55.50
41312;BME280;27061;41.648;24.568;2022-09-12T10:16:05;85787.16;;;17.36;55.78
41312;BME280;27061;41.648;24.568;2022-09-12T10:18:39;85773.38;;;17.30;53.20
41312;BME280;27061;41.648;24.568;2022-09-12T10:21:15;85790.16;;;17.30;55.82
41312;BME280;27061;41.648;24.568;2022-09-12T10:23:45;85749.03;;;17.08;54.17
41312;BME280;27061;41.648;24.568;2022-09-12T10:26:15;85784.72;;;17.26;55.12
41312;BME280;27061;41.648;24.568;2022-09-12T10:28:49;85759.53;;;17.07;53.74
41312;BME280;27061;41.648;24.568;2022-09-12T10:31:28;85789.47;;;17.30;54.20
41312;BME280;27061;41.648;24.568;2022-09-12T10:33:58;85786.06;;;17.27;55.83
41312;BME280;27061;41.648;24.568;2022-09-12T10:36:37;85733.91;;;17.01;56.85
41312;BME280;27061;41.648;24.568;2022-09-12T10:39:16;85782.59;;;17.45;54.29
41312;BME280;27061;41.648;24.568;2022-09-12T10:41:45;85779.50;;;17.53;55.32
41312;BME280;27061;41.648;24.568;2022-09-12T10:44:23;85774.22;;;17.45;55.57
41312;BME280;27061;41.648;24.568;2022-09-12T10:46:53;85772.31;;;17.59;54.72
41312;BME280;27061;41.648;24.568;2022-09-12T10:49:26;85789.50;;;17.67;52.42
41312;BME280;27061;41.648;24.568;2022-09-12T10:54:42;85781.75;;;17.86;52.41
41312;BME280;27061;41.648;24.568;2022-09-12T11:05:40;85787.84;;;17.91;48.98
41312;BME280;27061;41.648;24.568;2022-09-12T11:16:43;85796.34;;;17.89;51.97
41312;BME280;27061;41.648;24.568;2022-09-12T11:19:29;85785.38;;;17.83;49.45
41312;BME280;27061;41.648;24.568;2022-09-12T11:22:38;85769.97;;;17.65;52.47
41312;BME280;27061;41.648;24.568;2022-09-12T11:33:49;85773.28;;;17.88;53.03
41312;BME280;27061;41.648;24.568;2022-09-12T11:36:32;85790.66;;;17.91;51.85
41312;BME280;27061;41.648;24.568;2022-09-12T11:39:15;85776.75;;;17.89;48.94
41312;BME280;27061;41.648;24.568;2022-09-12T11:41:48;85778.69;;;17.92;49.38
41312;BME280;27061;41.648;24.568;2022-09-12T11:46:49;85777.72;;;18.00;50.03
41312;BME280;27061;41.648;24.568;2022-09-12T11:51:55;85777.72;;;18.00;50.15
41312;BME280;27061;41.648;24.568;2022-09-12T11:57:32;85742.94;;;17.76;51.98
41312;BME280;27061;41.648;24.568;2022-09-12T12:08:08;85769.72;;;18.07;53.18
41312;BME280;27061;41.648;24.568;2022-09-12T12:10:53;85751.03;;;18.01;54.96
41312;BME280;27061;41.648;24.568;2022-09-12T12:16:22;85758.22;;;18.32;54.99
41312;BME280;27061;41.648;24.568;2022-09-12T12:18:59;85741.16;;;18.21;52.57
41312;BME280;27061;41.648;24.568;2022-09-12T12:21:34;85774.19;;;18.35;53.60
41312;BME280;27061;41.648;24.568;2022-09-12T12:24:10;85749.38;;;18.25;52.80
41312;BME280;27061;41.648;24.568;2022-09-12T12:35:43;85757.88;;;18.40;52.02
41312;BME280;27061;41.648;24.568;2022-09-12T12:38:37;85761.78;;;18.47;50.80
41312;BME280;27061;41.648;24.568;2022-09-12T12:43:50;85730.09;;;18.34;52.78
41312;BME280;27061;41.648;24.568;2022-09-12T12:46:22;85712.94;;;18.25;52.32
41312;BME280;27061;41.648;24.568;2022-09-12T12:49:20;85737.16;;;18.33;51.89
41312;BME280;27061;41.648;24.568;2022-09-12T12:51:58;85730.69;;;18.36;52.25
41312;BME280;27061;41.648;24.568;2022-09-12T12:57:34;85749.38;;;18.75;50.42
41312;BME280;27061;41.648;24.568;2022-09-12T13:00:42;85747.44;;;18.72;52.02
41312;BME280;27061;41.648;24.568;2022-09-12T13:03:23;85742.78;;;18.66;50.69
41312;BME280;27061;41.648;24.568;2022-09-12T13:05:59;85734.19;;;18.70;48.94
41312;BME280;27061;41.648;24.568;2022-09-12T13:08:32;85743.78;;;18.92;50.07
41312;BME280;27061;41.648;24.568;2022-09-12T13:11:15;85733.59;;;18.84;50.91
41312;BME280;27061;41.648;24.568;2022-09-12T13:14:02;85721.84;;;18.80;51.26
41312;BME280;27061;41.648;24.568;2022-09-12T13:16:39;85748.44;;;18.97;50.94
41312;BME280;27061;41.648;24.568;2022-09-12T13:19:28;85729.50;;;18.81;50.41
41312;BME280;27061;41.648;24.568;2022-09-12T13:22:08;85715.03;;;18.91;49.16
41312;BME280;27061;41.648;24.568;2022-09-12T13:24:47;85739.31;;;19.14;49.00
41312;BME280;27061;41.648;24.568;2022-09-12T13:29:46;85730.13;;;19.15;47.83
41312;BME280;27061;41.648;24.568;2022-09-12T13:32:16;85743.47;;;19.15;44.34
41312;BME280;27061;41.648;24.568;2022-09-12T13:42:48;85720.88;;;19.02;46.60
41312;BME280;27061;41.648;24.568;2022-09-12T13:45:24;85742.47;;;19.06;46.43
41312;BME280;27061;41.648;24.568;2022-09-12T13:48:01;85747.97;;;19.08;46.05
41312;BME280;27061;41.648;24.568;2022-09-12T13:50:36;85716.66;;;18.86;46.84
41312;BME280;27061;41.648;24.568;2022-09-12T13:53:06;85719.81;;;18.78;47.05
41312;BME280;27061;41.648;24.568;2022-09-12T13:55:51;85713.09;;;18.54;49.21
41312;BME280;27061;41.648;24.568;2022-09-12T13:58:21;85735.28;;;18.77;49.49
41312;BME280;27061;41.648;24.568;2022-09-12T14:03:57;85749.22;;;18.79;50.57
41312;BME280;27061;41.648;24.568;2022-09-12T14:09:38;85747.94;;;18.76;48.48
41312;BME280;27061;41.648;24.568;2022-09-12T14:12:37;85743.78;;;18.75;49.88
41312;BME280;27061;41.648;24.568;2022-09-12T14:15:35;85741.53;;;18.63;47.95
41312;BME280;27061;41.648;24.568;2022-09-12T14:18:05;85743.44;;;18.67;48.93
41312;BME280;27061;41.648;24.568;2022-09-12T14:20:36;85701.66;;;18.44;49.33
41312;BME280;27061;41.648;24.568;2022-09-12T14:23:22;85743.63;;;18.62;50.07
41312;BME280;27061;41.648;24.568;2022-09-12T14:25:52;85742.59;;;18.37;48.51
41312;BME280;27061;41.648;24.568;2022-09-12T14:28:22;85718.13;;;18.18;48.49
41312;BME280;27061;41.648;24.568;2022-09-12T14:31:04;85745.47;;;18.35;50.04
41312;BME280;27061;41.648;24.568;2022-09-12T14:34:15;85749.72;;;18.34;48.23
41312;BME280;27061;41.648;24.568;2022-09-12T14:36:47;85740.88;;;18.10;48.75
41312;BME280;27061;41.648;24.568;2022-09-12T14:41:44;85730.81;;;17.82;50.22
41312;BME280;27061;41.648;24.568;2022-09-12T14:44:24;85737.53;;;17.89;50.04
41312;BME280;27061;41.648;24.568;2022-09-12T14:46:53;85757.00;;;18.10;51.45
41312;BME280;27061;41.648;24.568;2022-09-12T14:49:33;85738.66;;;17.96;49.17
41312;BME280;27061;41.648;24.568;2022-09-12T14:52:07;85753.06;;;18.03;50.69
41312;BME280;27061;41.648;24.568;2022-09-12T14:55:22;85742.28;;;17.92;51.52
41312;BME280;27061;41.648;24.568;2022-09-12T14:58:14;85753.75;;;18.03;50.54
41312;BME280;27061;41.648;24.568;2022-09-12T15:06:34;85756.81;;;17.97;50.85
41312;BME280;27061;41.648;24.568;2022-09-12T15:09:06;85754.69;;;17.98;49.95
41312;BME280;27061;41.648;24.568;2022-09-12T15:11:35;85758.34;;;17.94;49.38
41312;BME280;27061;41.648;24.568;2022-09-12T15:14:12;85757.50;;;17.98;49.03
41312;BME280;27061;41.648;24.568;2022-09-12T15:16:40;85721.44;;;17.71;49.45
41312;BME280;27061;41.648;24.568;2022-09-12T15:19:08;85756.81;;;17.97;48.32
41312;BME280;27061;41.648;24.568;2022-09-12T15:21:35;85746.41;;;17.77;49.07
41312;BME280;27061;41.648;24.568;2022-09-12T15:24:02;85761.53;;;17.84;50.46
41312;BME280;27061;41.648;24.568;2022-09-12T15:26:30;85762.06;;;17.88;49.54
41312;BME280;27061;41.648;24.568;2022-09-12T15:28:59;85753.13;;;17.84;49.11
41312;BME280;27061;41.648;24.568;2022-09-12T15:31:29;85767.28;;;17.80;49.01
41312;BME280;27061;41.648;24.568;2022-09-12T15:34:00;85736.38;;;17.65;50.00
41312;BME280;27061;41.648;24.568;2022-09-12T15:36:29;85719.91;;;17.38;50.47
41312;BME280;27061;41.648;24.568;2022-09-12T15:38:57;85728.50;;;17.51;49.98
41312;BME280;27061;41.648;24.568;2022-09-12T15:41:34;85765.19;;;17.62;49.99
41312;BME280;27061;41.648;24.568;2022-09-12T15:44:04;85762.38;;;17.62;50.67
41312;BME280;27061;41.648;24.568;2022-09-12T15:46:32;85750.13;;;17.52;50.03
41312;BME280;27061;41.648;24.568;2022-09-12T15:48:59;85762.63;;;17.55;50.86
41312;BME280;27061;41.648;24.568;2022-09-12T15:51:28;85757.94;;;17.31;52.13
41312;BME280;27061;41.648;24.568;2022-09-12T15:53:55;85763.75;;;17.44;52.22
41312;BME280;27061;41.648;24.568;2022-09-12T15:56:24;85760.28;;;17.43;51.25
41312;BME280;27061;41.648;24.568;2022-09-12T15:58:51;85762.34;;;17.45;51.69
41312;BME280;27061;41.648;24.568;2022-09-12T16:01:26;85767.06;;;17.48;51.40
41312;BME280;27061;41.648;24.568;2022-09-12T16:03:55;85762.41;;;17.43;51.04
41312;BME280;27061;41.648;24.568;2022-09-12T16:06:23;85739.97;;;17.26;51.50
41312;BME280;27061;41.648;24.568;2022-09-12T16:08:50;85752.28;;;17.33;51.41
41312;BME280;27061;41.648;24.568;2022-09-12T16:11:21;85736.38;;;17.28;52.17
41312;BME280;27061;41.648;24.568;2022-09-12T16:13:51;85762.47;;;17.41;52.02